sensor_id;sensor_type;location;lat;lon;timestamp;P1;durP1;ratioP1;P2;durP2;ratioP2
49828;SDS011;35723;51.194;5.112;2023-07-29T00:01:50;5.60;;;3.15;;
49828;SDS011;35723;51.194;5.112;2023-07-29T00:04:16;5.82;;;3.30;;
49828;SDS011;35723;51.194;5.112;2023-07-29T00:06:42;4.93;;;3.10;;
49828;SDS011;35723;51.194;5.112;2023-07-29T00:09:07;7.97;;;3.00;;
49828;SDS011;35723;51.194;5.112;2023-07-29T00:11:33;6.28;;;3.10;;
49828;SDS011;35723;51.194;5.112;2023-07-29T00:14:00;5.43;;;3.28;;
49828;SDS011;35723;51.194;5.112;2023-07-29T00:16:26;9.20;;;3.35;;
49828;SDS011;35723;51.194;5.112;2023-07-29T00:18:52;6.05;;;3.10;;
49828;SDS011;35723;51.194;5.112;2023-07-29T00:21:18;6.50;;;3.20;;
49828;SDS011;35723;51.194;5.112;2023-07-29T00:23:44;6.05;;;3.53;;
49828;SDS011;35723;51.194;5.112;2023-07-29T00:26:10;7.43;;;3.20;;
49828;SDS011;35723;51.194;5.112;2023-07-29T00:28:36;6.75;;;3.20;;
49828;SDS011;35723;51.194;5.112;2023-07-29T00:31:02;6.25;;;3.08;;
49828;SDS011;35723;51.194;5.112;2023-07-29T00:33:27;7.30;;;3.28;;
49828;SDS011;35723;51.194;5.112;2023-07-29T00:35:53;6.50;;;3.20;;
49828;SDS011;35723;51.194;5.112;2023-07-29T00:38:19;6.30;;;2.90;;
49828;SDS011;35723;51.194;5.112;2023-07-29T00:40:44;5.63;;;3.20;;
49828;SDS011;35723;51.194;5.112;2023-07-29T00:43:10;5.60;;;3.38;;
49828;SDS011;35723;51.194;5.112;2023-07-29T00:45:36;5.40;;;3.15;;
49828;SDS011;35723;51.194;5.112;2023-07-29T00:48:02;6.53;;;3.10;;
49828;SDS011;35723;51.194;5.112;2023-07-29T00:50:29;9.27;;;3.50;;
49828;SDS011;35723;51.194;5.112;2023-07-29T00:52:56;6.07;;;3.05;;
49828;SDS011;35723;51.194;5.112;2023-07-29T00:55:22;5.45;;;2.85;;
49828;SDS011;35723;51.194;5.112;2023-07-29T00:57:48;5.30;;;2.83;;
49828;SDS011;35723;51.194;5.112;2023-07-29T01:00:16;5.78;;;2.72;;
49828;SDS011;35723;51.194;5.112;2023-07-29T01:02:42;6.95;;;2.80;;
49828;SDS011;35723;51.194;5.112;2023-07-29T01:05:08;5.57;;;2.70;;
49828;SDS011;35723;51.194;5.112;2023-07-29T01:07:49;7.55;;;2.90;;
49828;SDS011;35723;51.194;5.112;2023-07-29T01:13:33;6.05;;;2.65;;
49828;SDS011;35723;51.194;5.112;2023-07-29T01:18:32;6.82;;;2.90;;
49828;SDS011;35723;51.194;5.112;2023-07-29T01:21:03;5.72;;;2.55;;
49828;SDS011;35723;51.194;5.112;2023-07-29T01:23:32;5.25;;;2.60;;
49828;SDS011;35723;51.194;5.112;2023-07-29T01:25:59;6.35;;;3.00;;
49828;SDS011;35723;51.194;5.112;2023-07-29T01:28:25;4.75;;;2.53;;
49828;SDS011;35723;51.194;5.112;2023-07-29T01:30:54;6.07;;;2.47;;
49828;SDS011;35723;51.194;5.112;2023-07-29T01:33:27;6.85;;;2.50;;
49828;SDS011;35723;51.194;5.112;2023-07-29T01:36:04;4.72;;;2.53;;
49828;SDS011;35723;51.194;5.112;2023-07-29T01:38:48;5.15;;;2.10;;
49828;SDS011;35723;51.194;5.112;2023-07-29T01:41:16;8.07;;;2.70;;
49828;SDS011;35723;51.194;5.112;2023-07-29T01:43:43;6.05;;;2.67;;
49828;SDS011;35723;51.194;5.112;2023-07-29T01:46:11;6.05;;;2.70;;
49828;SDS011;35723;51.194;5.112;2023-07-29T01:48:37;4.85;;;2.40;;
49828;SDS011;35723;51.194;5.112;2023-07-29T01:51:03;4.25;;;2.60;;
49828;SDS011;35723;51.194;5.112;2023-07-29T01:53:30;7.00;;;2.50;;
49828;SDS011;35723;51.194;5.112;2023-07-29T01:55:56;6.18;;;2.42;;
49828;SDS011;35723;51.194;5.112;2023-07-29T01:58:22;6.75;;;2.30;;
49828;SDS011;35723;51.194;5.112;2023-07-29T02:00:48;5.93;;;2.40;;
49828;SDS011;35723;51.194;5.112;2023-07-29T02:03:14;5.78;;;2.70;;
49828;SDS011;35723;51.194;5.112;2023-07-29T02:05:39;7.30;;;2.60;;
49828;SDS011;35723;51.194;5.112;2023-07-29T02:08:05;7.93;;;2.70;;
49828;SDS011;35723;51.194;5.112;2023-07-29T02:10:31;5.22;;;2.50;;
49828;SDS011;35723;51.194;5.112;2023-07-29T02:12:56;7.45;;;2.50;;
49828;SDS011;35723;51.194;5.112;2023-07-29T02:15:22;6.10;;;2.70;;
49828;SDS011;35723;51.194;5.112;2023-07-29T02:17:49;5.45;;;2.65;;
49828;SDS011;35723;51.194;5.112;2023-07-29T02:20:16;7.55;;;2.67;;
49828;SDS011;35723;51.194;5.112;2023-07-29T02:22:42;6.72;;;2.83;;
49828;SDS011;35723;51.194;5.112;2023-07-29T02:25:08;9.10;;;2.72;;
49828;SDS011;35723;51.194;5.112;2023-07-29T02:27:35;8.90;;;2.65;;
49828;SDS011;35723;51.194;5.112;2023-07-29T02:30:00;7.88;;;3.33;;
49828;SDS011;35723;51.194;5.112;2023-07-29T02:32:27;10.20;;;3.63;;
49828;SDS011;35723;51.194;5.112;2023-07-29T02:34:52;10.20;;;3.65;;
49828;SDS011;35723;51.194;5.112;2023-07-29T02:37:18;9.65;;;3.33;;
49828;SDS011;35723;51.194;5.112;2023-07-29T02:39:44;9.48;;;3.72;;
49828;SDS011;35723;51.194;5.112;2023-07-29T02:42:10;6.32;;;3.30;;
49828;SDS011;35723;51.194;5.112;2023-07-29T02:44:36;8.60;;;3.40;;
49828;SDS011;35723;51.194;5.112;2023-07-29T02:47:01;7.07;;;3.40;;
49828;SDS011;35723;51.194;5.112;2023-07-29T02:49:27;7.40;;;3.47;;
49828;SDS011;35723;51.194;5.112;2023-07-29T02:51:53;9.30;;;3.50;;
49828;SDS011;35723;51.194;5.112;2023-07-29T02:54:18;8.57;;;3.20;;
49828;SDS011;35723;51.194;5.112;2023-07-29T02:56:44;7.35;;;3.05;;
49828;SDS011;35723;51.194;5.112;2023-07-29T02:59:10;9.88;;;3.40;;
49828;SDS011;35723;51.194;5.112;2023-07-29T03:01:35;9.40;;;3.45;;
49828;SDS011;35723;51.194;5.112;2023-07-29T03:04:01;9.55;;;3.30;;
49828;SDS011;35723;51.194;5.112;2023-07-29T03:06:27;7.68;;;3.30;;
49828;SDS011;35723;51.194;5.112;2023-07-29T03:08:52;8.80;;;3.30;;
49828;SDS011;35723;51.194;5.112;2023-07-29T03:11:18;7.43;;;3.05;;
49828;SDS011;35723;51.194;5.112;2023-07-29T03:13:44;7.35;;;3.20;;
49828;SDS011;35723;51.194;5.112;2023-07-29T03:18:38;9.13;;;3.10;;
49828;SDS011;35723;51.194;5.112;2023-07-29T03:21:05;6.85;;;3.30;;
49828;SDS011;35723;51.194;5.112;2023-07-29T03:23:31;9.07;;;3.22;;
49828;SDS011;35723;51.194;5.112;2023-07-29T03:25:58;6.60;;;2.80;;
49828;SDS011;35723;51.194;5.112;2023-07-29T03:28:33;7.47;;;3.00;;
49828;SDS011;35723;51.194;5.112;2023-07-29T03:30:59;6.43;;;2.88;;
49828;SDS011;35723;51.194;5.112;2023-07-29T03:33:25;6.85;;;2.97;;
49828;SDS011;35723;51.194;5.112;2023-07-29T03:35:54;6.72;;;2.92;;
49828;SDS011;35723;51.194;5.112;2023-07-29T03:38:19;7.60;;;3.28;;
49828;SDS011;35723;51.194;5.112;2023-07-29T03:40:45;5.22;;;2.70;;
49828;SDS011;35723;51.194;5.112;2023-07-29T03:43:11;8.90;;;3.25;;
49828;SDS011;35723;51.194;5.112;2023-07-29T03:45:37;7.20;;;2.92;;
49828;SDS011;35723;51.194;5.112;2023-07-29T03:48:03;10.65;;;3.13;;
49828;SDS011;35723;51.194;5.112;2023-07-29T03:50:29;9.20;;;3.00;;
49828;SDS011;35723;51.194;5.112;2023-07-29T03:52:55;7.80;;;2.80;;
49828;SDS011;35723;51.194;5.112;2023-07-29T03:55:21;10.27;;;3.15;;
49828;SDS011;35723;51.194;5.112;2023-07-29T03:57:47;5.43;;;2.80;;
49828;SDS011;35723;51.194;5.112;2023-07-29T04:00:13;7.90;;;2.70;;
49828;SDS011;35723;51.194;5.112;2023-07-29T04:02:39;5.28;;;2.60;;
49828;SDS011;35723;51.194;5.112;2023-07-29T04:05:05;8.65;;;2.60;;
49828;SDS011;35723;51.194;5.112;2023-07-29T04:07:33;6.72;;;2.42;;
49828;SDS011;35723;51.194;5.112;2023-07-29T04:10:01;7.72;;;2.83;;
49828;SDS011;35723;51.194;5.112;2023-07-29T04:12:27;6.47;;;2.55;;
49828;SDS011;35723;51.194;5.112;2023-07-29T04:14:53;6.10;;;2.45;;
49828;SDS011;35723;51.194;5.112;2023-07-29T04:17:19;4.20;;;2.58;;
49828;SDS011;35723;51.194;5.112;2023-07-29T04:19:44;5.22;;;2.80;;
49828;SDS011;35723;51.194;5.112;2023-07-29T04:22:10;4.80;;;2.70;;
49828;SDS011;35723;51.194;5.112;2023-07-29T04:24:35;8.75;;;2.67;;
49828;SDS011;35723;51.194;5.112;2023-07-29T04:27:01;6.55;;;2.80;;
49828;SDS011;35723;51.194;5.112;2023-07-29T04:29:28;9.90;;;2.75;;
49828;SDS011;35723;51.194;5.112;2023-07-29T04:31:53;9.90;;;2.78;;
49828;SDS011;35723;51.194;5.112;2023-07-29T04:34:19;9.02;;;2.70;;
49828;SDS011;35723;51.194;5.112;2023-07-29T04:36:45;8.52;;;2.90;;
49828;SDS011;35723;51.194;5.112;2023-07-29T04:39:12;5.80;;;2.67;;
49828;SDS011;35723;51.194;5.112;2023-07-29T04:41:37;7.30;;;3.00;;
49828;SDS011;35723;51.194;5.112;2023-07-29T04:44:03;5.55;;;2.88;;
49828;SDS011;35723;51.194;5.112;2023-07-29T04:46:29;14.95;;;3.08;;
49828;SDS011;35723;51.194;5.112;2023-07-29T04:48:55;6.50;;;2.60;;
49828;SDS011;35723;51.194;5.112;2023-07-29T04:51:20;5.82;;;2.50;;
49828;SDS011;35723;51.194;5.112;2023-07-29T04:53:46;6.72;;;2.60;;
49828;SDS011;35723;51.194;5.112;2023-07-29T04:56:12;8.90;;;2.90;;
49828;SDS011;35723;51.194;5.112;2023-07-29T04:58:38;7.18;;;2.90;;
49828;SDS011;35723;51.194;5.112;2023-07-29T05:01:03;8.43;;;2.92;;
49828;SDS011;35723;51.194;5.112;2023-07-29T05:03:29;6.20;;;2.60;;
49828;SDS011;35723;51.194;5.112;2023-07-29T05:05:55;4.95;;;2.75;;
49828;SDS011;35723;51.194;5.112;2023-07-29T05:08:22;6.55;;;2.72;;
49828;SDS011;35723;51.194;5.112;2023-07-29T05:10:51;6.72;;;2.50;;
49828;SDS011;35723;51.194;5.112;2023-07-29T05:13:17;6.50;;;2.60;;
49828;SDS011;35723;51.194;5.112;2023-07-29T05:15:43;5.00;;;2.20;;
49828;SDS011;35723;51.194;5.112;2023-07-29T05:18:09;7.15;;;2.83;;
49828;SDS011;35723;51.194;5.112;2023-07-29T05:20:35;6.35;;;2.50;;
49828;SDS011;35723;51.194;5.112;2023-07-29T05:23:00;5.78;;;2.60;;
49828;SDS011;35723;51.194;5.112;2023-07-29T05:25:26;10.07;;;2.42;;
49828;SDS011;35723;51.194;5.112;2023-07-29T05:27:52;4.38;;;2.60;;
49828;SDS011;35723;51.194;5.112;2023-07-29T05:30:18;5.05;;;2.40;;
49828;SDS011;35723;51.194;5.112;2023-07-29T05:32:43;6.00;;;2.63;;
49828;SDS011;35723;51.194;5.112;2023-07-29T05:35:09;9.00;;;2.65;;
49828;SDS011;35723;51.194;5.112;2023-07-29T05:37:37;6.18;;;2.40;;
49828;SDS011;35723;51.194;5.112;2023-07-29T05:40:04;8.50;;;2.40;;
49828;SDS011;35723;51.194;5.112;2023-07-29T05:42:31;5.60;;;2.33;;
49828;SDS011;35723;51.194;5.112;2023-07-29T05:44:57;5.13;;;2.30;;
49828;SDS011;35723;51.194;5.112;2023-07-29T05:47:23;7.22;;;2.30;;
49828;SDS011;35723;51.194;5.112;2023-07-29T05:49:49;7.72;;;2.17;;
49828;SDS011;35723;51.194;5.112;2023-07-29T05:52:14;4.93;;;2.42;;
49828;SDS011;35723;51.194;5.112;2023-07-29T05:54:40;7.63;;;2.55;;
49828;SDS011;35723;51.194;5.112;2023-07-29T05:57:08;5.90;;;2.40;;
49828;SDS011;35723;51.194;5.112;2023-07-29T05:59:37;7.82;;;2.50;;
49828;SDS011;35723;51.194;5.112;2023-07-29T06:02:03;6.47;;;2.38;;
49828;SDS011;35723;51.194;5.112;2023-07-29T06:04:29;7.03;;;2.33;;
49828;SDS011;35723;51.194;5.112;2023-07-29T06:06:55;6.55;;;2.50;;
49828;SDS011;35723;51.194;5.112;2023-07-29T06:09:21;6.15;;;2.35;;
49828;SDS011;35723;51.194;5.112;2023-07-29T06:11:47;5.03;;;2.50;;
49828;SDS011;35723;51.194;5.112;2023-07-29T06:14:13;4.57;;;2.30;;
49828;SDS011;35723;51.194;5.112;2023-07-29T06:16:39;4.82;;;2.35;;
49828;SDS011;35723;51.194;5.112;2023-07-29T06:19:05;7.47;;;3.00;;
49828;SDS011;35723;51.194;5.112;2023-07-29T06:21:30;6.45;;;2.50;;
49828;SDS011;35723;51.194;5.112;2023-07-29T06:23:56;3.75;;;2.28;;
49828;SDS011;35723;51.194;5.112;2023-07-29T06:26:22;6.95;;;2.38;;
49828;SDS011;35723;51.194;5.112;2023-07-29T06:28:47;8.63;;;2.55;;
49828;SDS011;35723;51.194;5.112;2023-07-29T06:31:13;8.10;;;2.50;;
49828;SDS011;35723;51.194;5.112;2023-07-29T06:33:39;3.90;;;2.28;;
49828;SDS011;35723;51.194;5.112;2023-07-29T06:36:05;6.97;;;2.50;;
49828;SDS011;35723;51.194;5.112;2023-07-29T06:38:31;5.95;;;2.35;;
49828;SDS011;35723;51.194;5.112;2023-07-29T06:40:57;5.63;;;2.20;;
49828;SDS011;35723;51.194;5.112;2023-07-29T06:43:22;4.32;;;2.10;;
49828;SDS011;35723;51.194;5.112;2023-07-29T06:45:48;6.85;;;2.55;;
49828;SDS011;35723;51.194;5.112;2023-07-29T06:48:14;5.97;;;2.20;;
49828;SDS011;35723;51.194;5.112;2023-07-29T06:50:39;5.18;;;1.83;;
49828;SDS011;35723;51.194;5.112;2023-07-29T06:53:05;4.65;;;2.15;;
49828;SDS011;35723;51.194;5.112;2023-07-29T06:55:31;3.20;;;2.00;;
49828;SDS011;35723;51.194;5.112;2023-07-29T06:57:57;4.40;;;2.00;;
49828;SDS011;35723;51.194;5.112;2023-07-29T07:00:22;5.50;;;1.98;;
49828;SDS011;35723;51.194;5.112;2023-07-29T07:02:48;6.35;;;1.95;;
49828;SDS011;35723;51.194;5.112;2023-07-29T07:05:14;2.85;;;1.85;;
49828;SDS011;35723;51.194;5.112;2023-07-29T07:07:40;3.33;;;1.88;;
49828;SDS011;35723;51.194;5.112;2023-07-29T07:10:05;2.70;;;1.77;;
49828;SDS011;35723;51.194;5.112;2023-07-29T07:12:31;3.95;;;1.92;;
49828;SDS011;35723;51.194;5.112;2023-07-29T07:14:57;4.18;;;2.15;;
49828;SDS011;35723;51.194;5.112;2023-07-29T07:17:22;5.97;;;1.80;;
49828;SDS011;35723;51.194;5.112;2023-07-29T07:19:48;4.05;;;1.80;;
49828;SDS011;35723;51.194;5.112;2023-07-29T07:22:15;4.35;;;1.85;;
49828;SDS011;35723;51.194;5.112;2023-07-29T07:24:41;3.25;;;1.90;;
49828;SDS011;35723;51.194;5.112;2023-07-29T07:27:06;5.05;;;1.70;;
49828;SDS011;35723;51.194;5.112;2023-07-29T07:29:32;4.28;;;1.60;;
49828;SDS011;35723;51.194;5.112;2023-07-29T07:31:58;4.50;;;1.77;;
49828;SDS011;35723;51.194;5.112;2023-07-29T07:34:24;4.40;;;1.70;;
49828;SDS011;35723;51.194;5.112;2023-07-29T07:36:50;3.15;;;1.77;;
49828;SDS011;35723;51.194;5.112;2023-07-29T07:39:16;4.97;;;1.85;;
49828;SDS011;35723;51.194;5.112;2023-07-29T07:41:41;1.88;;;1.67;;
49828;SDS011;35723;51.194;5.112;2023-07-29T07:44:07;2.15;;;1.58;;
49828;SDS011;35723;51.194;5.112;2023-07-29T07:46:33;4.30;;;1.70;;
49828;SDS011;35723;51.194;5.112;2023-07-29T07:48:59;3.90;;;1.80;;
49828;SDS011;35723;51.194;5.112;2023-07-29T07:51:25;2.80;;;1.70;;
49828;SDS011;35723;51.194;5.112;2023-07-29T07:53:50;4.72;;;1.85;;
49828;SDS011;35723;51.194;5.112;2023-07-29T07:56:16;3.03;;;1.70;;
49828;SDS011;35723;51.194;5.112;2023-07-29T07:58:42;3.67;;;1.95;;
49828;SDS011;35723;51.194;5.112;2023-07-29T08:01:08;3.40;;;1.67;;
49828;SDS011;35723;51.194;5.112;2023-07-29T08:03:34;4.32;;;1.90;;
49828;SDS011;35723;51.194;5.112;2023-07-29T08:06:00;4.60;;;1.70;;
49828;SDS011;35723;51.194;5.112;2023-07-29T08:08:27;2.78;;;1.88;;
49828;SDS011;35723;51.194;5.112;2023-07-29T08:10:56;7.97;;;1.65;;
49828;SDS011;35723;51.194;5.112;2023-07-29T08:13:22;4.43;;;1.75;;
49828;SDS011;35723;51.194;5.112;2023-07-29T08:15:49;5.90;;;1.92;;
49828;SDS011;35723;51.194;5.112;2023-07-29T08:18:15;3.28;;;1.80;;
49828;SDS011;35723;51.194;5.112;2023-07-29T08:20:51;2.85;;;1.73;;
49828;SDS011;35723;51.194;5.112;2023-07-29T08:23:22;2.08;;;1.60;;
49828;SDS011;35723;51.194;5.112;2023-07-29T08:25:56;3.20;;;1.80;;
49828;SDS011;35723;51.194;5.112;2023-07-29T08:28:27;4.85;;;1.90;;
49828;SDS011;35723;51.194;5.112;2023-07-29T08:30:53;6.07;;;1.45;;
49828;SDS011;35723;51.194;5.112;2023-07-29T08:33:19;5.43;;;2.10;;
49828;SDS011;35723;51.194;5.112;2023-07-29T08:35:45;4.45;;;1.77;;
49828;SDS011;35723;51.194;5.112;2023-07-29T08:38:11;5.82;;;1.73;;
49828;SDS011;35723;51.194;5.112;2023-07-29T08:40:37;5.95;;;1.98;;
49828;SDS011;35723;51.194;5.112;2023-07-29T08:43:06;3.42;;;2.00;;
49828;SDS011;35723;51.194;5.112;2023-07-29T08:45:34;3.08;;;2.00;;
49828;SDS011;35723;51.194;5.112;2023-07-29T08:48:02;5.15;;;1.80;;
49828;SDS011;35723;51.194;5.112;2023-07-29T08:50:32;3.35;;;1.75;;
49828;SDS011;35723;51.194;5.112;2023-07-29T08:52:58;1.98;;;1.55;;
49828;SDS011;35723;51.194;5.112;2023-07-29T08:55:25;4.35;;;2.03;;
49828;SDS011;35723;51.194;5.112;2023-07-29T08:57:51;2.60;;;1.55;;
49828;SDS011;35723;51.194;5.112;2023-07-29T09:00:17;4.00;;;1.90;;
49828;SDS011;35723;51.194;5.112;2023-07-29T09:02:42;4.72;;;2.05;;
49828;SDS011;35723;51.194;5.112;2023-07-29T09:05:08;2.88;;;1.77;;
49828;SDS011;35723;51.194;5.112;2023-07-29T09:07:34;6.10;;;1.77;;
49828;SDS011;35723;51.194;5.112;2023-07-29T09:10:02;4.35;;;2.00;;
49828;SDS011;35723;51.194;5.112;2023-07-29T09:12:27;3.72;;;2.00;;
49828;SDS011;35723;51.194;5.112;2023-07-29T09:14:53;3.50;;;1.85;;
49828;SDS011;35723;51.194;5.112;2023-07-29T09:17:22;3.97;;;1.65;;
49828;SDS011;35723;51.194;5.112;2023-07-29T09:19:48;3.03;;;1.60;;
49828;SDS011;35723;51.194;5.112;2023-07-29T09:22:19;4.40;;;1.80;;
49828;SDS011;35723;51.194;5.112;2023-07-29T09:24:45;4.32;;;1.75;;
49828;SDS011;35723;51.194;5.112;2023-07-29T09:27:27;2.58;;;1.50;;
49828;SDS011;35723;51.194;5.112;2023-07-29T09:29:56;3.92;;;1.50;;
49828;SDS011;35723;51.194;5.112;2023-07-29T09:32:22;4.72;;;1.70;;
49828;SDS011;35723;51.194;5.112;2023-07-29T09:34:50;4.57;;;2.00;;
49828;SDS011;35723;51.194;5.112;2023-07-29T09:37:17;2.97;;;1.75;;
49828;SDS011;35723;51.194;5.112;2023-07-29T09:39:46;3.88;;;1.70;;
49828;SDS011;35723;51.194;5.112;2023-07-29T09:42:19;4.57;;;1.60;;
49828;SDS011;35723;51.194;5.112;2023-07-29T09:47:21;3.40;;;1.80;;
49828;SDS011;35723;51.194;5.112;2023-07-29T09:49:48;4.10;;;1.55;;
49828;SDS011;35723;51.194;5.112;2023-07-29T09:52:18;3.17;;;1.70;;
49828;SDS011;35723;51.194;5.112;2023-07-29T09:54:44;2.90;;;1.60;;
49828;SDS011;35723;51.194;5.112;2023-07-29T09:57:13;5.50;;;2.00;;
49828;SDS011;35723;51.194;5.112;2023-07-29T09:59:39;4.07;;;1.90;;
49828;SDS011;35723;51.194;5.112;2023-07-29T10:02:07;2.75;;;1.70;;
49828;SDS011;35723;51.194;5.112;2023-07-29T10:04:38;2.75;;;1.70;;
49828;SDS011;35723;51.194;5.112;2023-07-29T10:07:05;4.40;;;2.00;;
49828;SDS011;35723;51.194;5.112;2023-07-29T10:09:32;3.65;;;2.08;;
49828;SDS011;35723;51.194;5.112;2023-07-29T10:11:58;4.55;;;1.90;;
49828;SDS011;35723;51.194;5.112;2023-07-29T10:14:25;5.22;;;2.00;;
49828;SDS011;35723;51.194;5.112;2023-07-29T10:16:53;7.43;;;2.05;;
49828;SDS011;35723;51.194;5.112;2023-07-29T10:19:20;3.15;;;1.88;;
49828;SDS011;35723;51.194;5.112;2023-07-29T10:21:47;3.13;;;1.92;;
49828;SDS011;35723;51.194;5.112;2023-07-29T10:24:19;4.05;;;2.05;;
49828;SDS011;35723;51.194;5.112;2023-07-29T10:26:49;2.83;;;1.90;;
49828;SDS011;35723;51.194;5.112;2023-07-29T10:29:17;2.35;;;1.92;;
49828;SDS011;35723;51.194;5.112;2023-07-29T10:31:47;2.72;;;2.10;;
49828;SDS011;35723;51.194;5.112;2023-07-29T10:34:17;3.15;;;1.90;;
49828;SDS011;35723;51.194;5.112;2023-07-29T10:36:44;3.88;;;2.00;;
49828;SDS011;35723;51.194;5.112;2023-07-29T10:39:12;4.78;;;1.98;;
49828;SDS011;35723;51.194;5.112;2023-07-29T10:47:25;6.63;;;2.20;;
49828;SDS011;35723;51.194;5.112;2023-07-29T10:49:53;4.60;;;2.10;;
49828;SDS011;35723;51.194;5.112;2023-07-29T10:52:30;4.03;;;2.38;;
49828;SDS011;35723;51.194;5.112;2023-07-29T10:54:59;3.42;;;2.30;;
49828;SDS011;35723;51.194;5.112;2023-07-29T11:00:05;3.88;;;2.03;;
49828;SDS011;35723;51.194;5.112;2023-07-29T11:02:34;3.78;;;2.28;;
49828;SDS011;35723;51.194;5.112;2023-07-29T11:05:08;7.03;;;2.40;;
49828;SDS011;35723;51.194;5.112;2023-07-29T11:07:48;6.85;;;2.22;;
49828;SDS011;35723;51.194;5.112;2023-07-29T11:10:20;4.25;;;1.90;;
49828;SDS011;35723;51.194;5.112;2023-07-29T11:12:58;5.80;;;2.28;;
49828;SDS011;35723;51.194;5.112;2023-07-29T11:15:27;8.52;;;2.35;;
49828;SDS011;35723;51.194;5.112;2023-07-29T11:17:57;4.63;;;2.13;;
49828;SDS011;35723;51.194;5.112;2023-07-29T11:20:28;5.40;;;2.20;;
49828;SDS011;35723;51.194;5.112;2023-07-29T11:22:55;4.43;;;2.20;;
49828;SDS011;35723;51.194;5.112;2023-07-29T11:25:23;3.08;;;1.83;;
49828;SDS011;35723;51.194;5.112;2023-07-29T11:27:51;3.78;;;2.10;;
49828;SDS011;35723;51.194;5.112;2023-07-29T11:30:18;5.85;;;2.30;;
49828;SDS011;35723;51.194;5.112;2023-07-29T11:32:45;10.32;;;2.20;;
49828;SDS011;35723;51.194;5.112;2023-07-29T11:35:12;4.80;;;2.03;;
49828;SDS011;35723;51.194;5.112;2023-07-29T11:37:40;2.45;;;1.80;;
49828;SDS011;35723;51.194;5.112;2023-07-29T11:40:07;4.65;;;2.03;;
49828;SDS011;35723;51.194;5.112;2023-07-29T11:42:35;2.70;;;1.90;;
49828;SDS011;35723;51.194;5.112;2023-07-29T11:45:04;4.68;;;1.92;;
49828;SDS011;35723;51.194;5.112;2023-07-29T11:50:01;5.13;;;2.17;;
49828;SDS011;35723;51.194;5.112;2023-07-29T11:52:30;5.88;;;2.22;;
49828;SDS011;35723;51.194;5.112;2023-07-29T11:54:56;9.70;;;2.75;;
49828;SDS011;35723;51.194;5.112;2023-07-29T11:57:23;8.98;;;2.00;;
49828;SDS011;35723;51.194;5.112;2023-07-29T11:59:49;5.88;;;1.35;;
49828;SDS011;35723;51.194;5.112;2023-07-29T12:02:19;3.90;;;1.70;;
49828;SDS011;35723;51.194;5.112;2023-07-29T12:04:46;3.53;;;1.38;;
49828;SDS011;35723;51.194;5.112;2023-07-29T12:07:13;3.50;;;1.40;;
49828;SDS011;35723;51.194;5.112;2023-07-29T12:09:40;6.63;;;1.63;;
49828;SDS011;35723;51.194;5.112;2023-07-29T12:12:07;4.88;;;1.65;;
49828;SDS011;35723;51.194;5.112;2023-07-29T12:14:33;7.05;;;1.90;;
49828;SDS011;35723;51.194;5.112;2023-07-29T12:17:00;7.57;;;2.10;;
49828;SDS011;35723;51.194;5.112;2023-07-29T12:19:37;9.73;;;2.35;;
49828;SDS011;35723;51.194;5.112;2023-07-29T12:22:04;10.90;;;2.40;;
49828;SDS011;35723;51.194;5.112;2023-07-29T12:24:35;8.45;;;2.30;;
49828;SDS011;35723;51.194;5.112;2023-07-29T12:27:05;7.05;;;2.60;;
49828;SDS011;35723;51.194;5.112;2023-07-29T12:29:39;5.97;;;2.42;;
49828;SDS011;35723;51.194;5.112;2023-07-29T12:32:06;7.65;;;2.60;;
49828;SDS011;35723;51.194;5.112;2023-07-29T12:34:32;9.00;;;2.67;;
49828;SDS011;35723;51.194;5.112;2023-07-29T12:37:02;7.90;;;2.78;;
49828;SDS011;35723;51.194;5.112;2023-07-29T12:39:29;7.03;;;2.80;;
49828;SDS011;35723;51.194;5.112;2023-07-29T12:41:57;10.68;;;2.83;;
49828;SDS011;35723;51.194;5.112;2023-07-29T12:44:24;8.13;;;2.88;;
49828;SDS011;35723;51.194;5.112;2023-07-29T12:46:57;5.15;;;2.78;;
49828;SDS011;35723;51.194;5.112;2023-07-29T12:49:24;6.88;;;2.90;;
49828;SDS011;35723;51.194;5.112;2023-07-29T12:51:50;5.75;;;2.80;;
49828;SDS011;35723;51.194;5.112;2023-07-29T12:54:15;8.73;;;2.65;;
49828;SDS011;35723;51.194;5.112;2023-07-29T12:56:41;7.50;;;3.10;;
49828;SDS011;35723;51.194;5.112;2023-07-29T12:59:06;5.55;;;2.90;;
49828;SDS011;35723;51.194;5.112;2023-07-29T13:01:32;6.18;;;2.70;;
49828;SDS011;35723;51.194;5.112;2023-07-29T13:03:58;6.38;;;2.65;;
49828;SDS011;35723;51.194;5.112;2023-07-29T13:06:23;6.55;;;2.60;;
49828;SDS011;35723;51.194;5.112;2023-07-29T13:08:49;8.38;;;2.80;;
49828;SDS011;35723;51.194;5.112;2023-07-29T13:11:15;6.25;;;2.60;;
49828;SDS011;35723;51.194;5.112;2023-07-29T13:13:41;7.15;;;3.17;;
49828;SDS011;35723;51.194;5.112;2023-07-29T13:16:07;9.40;;;3.50;;
49828;SDS011;35723;51.194;5.112;2023-07-29T13:18:33;6.45;;;3.42;;
49828;SDS011;35723;51.194;5.112;2023-07-29T13:20:59;11.43;;;3.80;;
49828;SDS011;35723;51.194;5.112;2023-07-29T13:23:25;11.35;;;3.42;;
49828;SDS011;35723;51.194;5.112;2023-07-29T13:25:52;6.28;;;3.03;;
49828;SDS011;35723;51.194;5.112;2023-07-29T13:28:17;7.78;;;2.90;;
49828;SDS011;35723;51.194;5.112;2023-07-29T13:30:44;4.65;;;2.50;;
49828;SDS011;35723;51.194;5.112;2023-07-29T13:33:09;5.88;;;2.80;;
49828;SDS011;35723;51.194;5.112;2023-07-29T13:35:35;7.25;;;3.08;;
49828;SDS011;35723;51.194;5.112;2023-07-29T13:38:01;5.68;;;2.75;;
49828;SDS011;35723;51.194;5.112;2023-07-29T13:40:27;6.20;;;2.65;;
49828;SDS011;35723;51.194;5.112;2023-07-29T13:42:53;4.85;;;2.70;;
49828;SDS011;35723;51.194;5.112;2023-07-29T13:45:19;5.45;;;2.58;;
49828;SDS011;35723;51.194;5.112;2023-07-29T13:47:45;5.72;;;2.60;;
49828;SDS011;35723;51.194;5.112;2023-07-29T13:50:11;6.78;;;2.67;;
49828;SDS011;35723;51.194;5.112;2023-07-29T13:52:37;4.30;;;2.50;;
49828;SDS011;35723;51.194;5.112;2023-07-29T13:55:05;5.05;;;2.75;;
49828;SDS011;35723;51.194;5.112;2023-07-29T13:57:31;6.05;;;2.60;;
49828;SDS011;35723;51.194;5.112;2023-07-29T13:59:57;5.47;;;2.50;;
49828;SDS011;35723;51.194;5.112;2023-07-29T14:02:23;5.45;;;2.60;;
49828;SDS011;35723;51.194;5.112;2023-07-29T14:04:51;4.13;;;2.40;;
49828;SDS011;35723;51.194;5.112;2023-07-29T14:07:17;2.90;;;2.03;;
49828;SDS011;35723;51.194;5.112;2023-07-29T14:09:42;5.10;;;2.20;;
49828;SDS011;35723;51.194;5.112;2023-07-29T14:12:08;2.92;;;2.28;;
49828;SDS011;35723;51.194;5.112;2023-07-29T14:14:39;3.53;;;2.22;;
49828;SDS011;35723;51.194;5.112;2023-07-29T14:17:05;2.85;;;2.20;;
49828;SDS011;35723;51.194;5.112;2023-07-29T14:19:32;2.88;;;2.20;;
49828;SDS011;35723;51.194;5.112;2023-07-29T14:21:57;2.72;;;2.10;;
49828;SDS011;35723;51.194;5.112;2023-07-29T14:24:23;3.13;;;2.25;;
49828;SDS011;35723;51.194;5.112;2023-07-29T14:26:49;3.25;;;2.00;;
49828;SDS011;35723;51.194;5.112;2023-07-29T14:29:15;4.35;;;2.10;;
49828;SDS011;35723;51.194;5.112;2023-07-29T14:31:40;3.78;;;2.20;;
49828;SDS011;35723;51.194;5.112;2023-07-29T14:34:06;2.78;;;2.20;;
49828;SDS011;35723;51.194;5.112;2023-07-29T14:36:31;5.80;;;2.47;;
49828;SDS011;35723;51.194;5.112;2023-07-29T14:38:57;3.92;;;2.58;;
49828;SDS011;35723;51.194;5.112;2023-07-29T14:41:23;3.42;;;2.28;;
49828;SDS011;35723;51.194;5.112;2023-07-29T14:43:49;4.05;;;2.33;;
49828;SDS011;35723;51.194;5.112;2023-07-29T14:46:14;3.67;;;2.38;;
49828;SDS011;35723;51.194;5.112;2023-07-29T14:48:40;3.40;;;2.40;;
49828;SDS011;35723;51.194;5.112;2023-07-29T14:51:05;4.63;;;2.70;;
49828;SDS011;35723;51.194;5.112;2023-07-29T14:53:31;3.88;;;2.40;;
49828;SDS011;35723;51.194;5.112;2023-07-29T14:55:57;5.00;;;2.50;;
49828;SDS011;35723;51.194;5.112;2023-07-29T14:58:22;5.95;;;2.50;;
49828;SDS011;35723;51.194;5.112;2023-07-29T15:00:50;3.63;;;2.50;;
49828;SDS011;35723;51.194;5.112;2023-07-29T15:03:16;2.97;;;2.35;;
49828;SDS011;35723;51.194;5.112;2023-07-29T15:05:42;6.30;;;2.53;;
49828;SDS011;35723;51.194;5.112;2023-07-29T15:08:08;3.80;;;2.35;;